Terminal Aerodrome Forecast
Issued by NWS

Home | Current Version | Previous Version | Text Only | Print | Product List | Glossary On
Versions: 1 2 3 4 5 6 7 8 9 10 11 12 13 14
642
FTUS46 KPDT 051143
TAFRDM
TAF
KRDM 051143Z 0512/0612 18005KT P6SM SCT040 BKN070
     FM051900 21009G15KT P6SM SCT025 BKN050
     FM060300 27006KT P6SM VCSH BKN030 OVC050
     FM060800 VRB04KT 5SM -SHSN BR SCT005 BKN020=

USA.gov is the U.S. government's official web portal to all federal, state and local government web resources and services.